createdAt,value
2022-08-25T00:01:08.990Z,17.58
2022-08-25T00:03:35.985Z,17.54
2022-08-25T00:06:07.573Z,17.50
2022-08-25T00:08:34.060Z,17.47
2022-08-25T00:11:04.107Z,17.32
2022-08-25T00:13:30.517Z,17.19
2022-08-25T00:15:57.286Z,17.08
2022-08-25T00:18:24.095Z,17.07
2022-08-25T00:20:50.512Z,17.03
2022-08-25T00:23:17.279Z,17.01
2022-08-25T00:25:45.299Z,17.00
2022-08-25T00:28:15.107Z,16.99
2022-08-25T00:30:41.792Z,17.02
2022-08-25T00:33:12.768Z,17.01
2022-08-25T00:35:40.373Z,17.02
2022-08-25T00:38:06.951Z,16.95
2022-08-25T00:40:33.449Z,16.94
2022-08-25T00:42:59.958Z,16.88
2022-08-25T00:45:26.817Z,16.82
2022-08-25T00:47:58.958Z,16.81
2022-08-25T00:50:29.806Z,16.83
2022-08-25T00:52:58.281Z,16.79
2022-08-25T00:55:29.441Z,16.79
2022-08-25T00:57:58.891Z,16.78
2022-08-25T01:00:28.674Z,16.80
2022-08-25T01:02:55.259Z,16.72
2022-08-25T01:05:21.650Z,16.62
2022-08-25T01:07:48.301Z,16.62
2022-08-25T01:10:14.733Z,16.66
2022-08-25T01:12:41.165Z,16.64
2022-08-25T01:15:08.799Z,16.61
2022-08-25T01:17:39.310Z,16.62
2022-08-25T01:20:05.871Z,16.51
2022-08-25T01:22:32.508Z,16.52
2022-08-25T01:25:07.568Z,16.47
2022-08-25T01:27:34.176Z,16.39
2022-08-25T01:30:00.710Z,16.38
2022-08-25T01:32:27.041Z,16.37
2022-08-25T01:34:54.065Z,16.35
2022-08-25T01:37:20.534Z,16.32
2022-08-25T01:39:47.066Z,16.35
2022-08-25T01:42:13.514Z,16.35
2022-08-25T01:44:42.179Z,16.38
2022-08-25T01:47:08.578Z,16.45
2022-08-25T01:49:35.254Z,16.45
2022-08-25T01:52:12.598Z,16.46
2022-08-25T01:54:39.339Z,16.49
2022-08-25T01:57:05.974Z,16.45
2022-08-25T01:59:32.607Z,16.40
2022-08-25T02:02:00.221Z,16.40
2022-08-25T02:04:27.495Z,16.38
2022-08-25T02:06:53.960Z,16.37
2022-08-25T02:09:21.334Z,16.34
2022-08-25T02:11:48.993Z,16.31
2022-08-25T02:14:19.027Z,16.30
2022-08-25T02:16:48.543Z,16.22
2022-08-25T02:19:15.814Z,16.14
2022-08-25T02:21:44.610Z,16.07
2022-08-25T02:24:11.397Z,16.03
2022-08-25T02:26:38.261Z,15.97
2022-08-25T02:29:05.596Z,15.99
2022-08-25T02:31:32.135Z,16.01
2022-08-25T02:34:01.302Z,15.98
2022-08-25T02:36:28.321Z,16.00
2022-08-25T02:38:54.798Z,16.00
2022-08-25T02:41:31.341Z,15.99
2022-08-25T02:43:58.809Z,16.02
2022-08-25T02:46:27.242Z,16.05
2022-08-25T02:48:54.063Z,16.04
2022-08-25T02:51:21.937Z,16.06
2022-08-25T02:53:48.984Z,16.06
2022-08-25T02:56:16.604Z,16.03
2022-08-25T02:58:43.091Z,16.03
2022-08-25T03:01:10.235Z,16.02
2022-08-25T03:03:39.438Z,16.03
2022-08-25T03:06:09.493Z,16.03
2022-08-25T03:08:36.853Z,16.03
2022-08-25T03:11:03.663Z,16.05
2022-08-25T03:13:29.990Z,16.00
2022-08-25T03:15:56.599Z,15.98
2022-08-25T03:18:22.955Z,15.92
2022-08-25T03:20:51.042Z,15.88
2022-08-25T03:23:17.381Z,15.88
2022-08-25T03:25:44.169Z,15.90
2022-08-25T03:28:12.542Z,15.89
2022-08-25T03:30:39.043Z,15.87
2022-08-25T03:33:05.457Z,15.86
2022-08-25T03:35:31.794Z,15.84
2022-08-25T03:37:59.941Z,15.89
2022-08-25T03:40:26.427Z,15.86
2022-08-25T03:42:52.858Z,15.86
2022-08-25T03:45:19.545Z,15.82
2022-08-25T03:47:46.993Z,15.80
2022-08-25T03:50:14.411Z,15.80
2022-08-25T03:52:42.756Z,15.78
2022-08-25T03:55:11.363Z,15.77
2022-08-25T03:57:37.934Z,15.76
2022-08-25T04:00:10.142Z,15.81
2022-08-25T04:02:36.655Z,15.81
2022-08-25T04:05:03.185Z,15.78
2022-08-25T04:07:30.437Z,15.79
2022-08-25T04:09:56.864Z,15.68
2022-08-25T04:12:23.222Z,15.64
2022-08-25T04:14:49.949Z,15.52
2022-08-25T04:17:16.692Z,15.51
2022-08-25T04:19:44.028Z,15.49
2022-08-25T04:22:10.415Z,15.45
2022-08-25T04:24:36.948Z,15.42
2022-08-25T04:27:04.019Z,15.41
2022-08-25T04:29:30.660Z,15.42
2022-08-25T04:31:57.121Z,15.35
2022-08-25T04:34:29.741Z,15.34
2022-08-25T04:36:58.799Z,15.32
2022-08-25T04:39:25.245Z,15.32
2022-08-25T04:41:51.808Z,15.28
2022-08-25T04:44:18.651Z,15.28
2022-08-25T04:46:45.009Z,15.31
2022-08-25T04:49:11.520Z,15.36
2022-08-25T04:51:40.696Z,15.38
2022-08-25T04:54:11.552Z,15.42
2022-08-25T04:56:40.003Z,15.42
2022-08-25T04:59:11.029Z,15.39
2022-08-25T05:01:38.179Z,15.37
2022-08-25T05:04:05.718Z,15.41
2022-08-25T05:06:32.498Z,15.47
2022-08-25T05:08:59.271Z,15.51
2022-08-25T05:11:26.102Z,15.54
2022-08-25T05:13:53.421Z,15.58
2022-08-25T05:16:21.682Z,15.60
2022-08-25T05:18:49.601Z,15.65
2022-08-25T05:21:18.539Z,15.75
2022-08-25T05:23:47.439Z,15.82
2022-08-25T05:26:19.810Z,15.88
2022-08-25T05:28:47.443Z,15.93
2022-08-25T05:31:15.061Z,15.97
2022-08-25T05:33:42.159Z,16.07
2022-08-25T05:36:10.737Z,16.12
2022-08-25T05:38:37.604Z,16.17
2022-08-25T05:41:05.244Z,16.25
2022-08-25T05:43:32.433Z,16.34
2022-08-25T05:46:00.000Z,16.38
2022-08-25T05:48:29.293Z,16.40
2022-08-25T05:50:57.375Z,16.45
2022-08-25T05:53:24.698Z,16.64
2022-08-25T05:55:51.731Z,16.76
2022-08-25T05:58:18.315Z,16.83
2022-08-25T06:00:45.283Z,16.97
2022-08-25T06:03:11.701Z,17.08
2022-08-25T06:05:38.254Z,17.18
2022-08-25T06:08:04.948Z,17.15
2022-08-25T06:10:31.455Z,17.30
2022-08-25T06:12:58.601Z,17.50
2022-08-25T06:15:25.949Z,17.62
2022-08-25T06:17:54.211Z,17.74
2022-08-25T06:20:26.913Z,17.81
2022-08-25T06:22:53.653Z,17.92
2022-08-25T06:25:22.162Z,18.16
2022-08-25T06:27:48.859Z,18.34
2022-08-25T06:30:16.670Z,18.62
2022-08-25T06:32:44.611Z,18.74
2022-08-25T06:35:12.329Z,18.86
2022-08-25T06:37:38.855Z,18.88
2022-08-25T06:40:05.803Z,18.91
2022-08-25T06:42:32.339Z,18.95
2022-08-25T06:44:58.711Z,19.13
2022-08-25T06:47:25.098Z,19.24
2022-08-25T06:49:57.667Z,19.33
2022-08-25T06:52:29.090Z,19.45
2022-08-25T06:54:56.768Z,19.56
2022-08-25T06:57:23.150Z,19.82
2022-08-25T06:59:49.511Z,20.03
2022-08-25T07:02:21.960Z,20.34
2022-08-25T07:04:49.276Z,20.59
2022-08-25T07:07:15.822Z,20.72
2022-08-25T07:09:42.946Z,20.83
2022-08-25T07:12:09.476Z,20.95
2022-08-25T07:14:35.787Z,21.22
2022-08-25T07:17:03.299Z,21.28
2022-08-25T07:19:37.796Z,21.54
2022-08-25T07:22:04.189Z,21.70
2022-08-25T07:24:30.642Z,22.08
2022-08-25T07:26:56.994Z,22.19
2022-08-25T07:29:32.341Z,22.13
2022-08-25T07:32:04.370Z,22.41
2022-08-25T07:34:31.411Z,22.56
2022-08-25T07:36:58.850Z,22.90
2022-08-25T07:39:29.046Z,23.11
2022-08-25T07:41:55.522Z,23.27
2022-08-25T07:44:22.977Z,22.96
2022-08-25T07:46:50.379Z,23.05
2022-08-25T07:49:17.550Z,23.48
2022-08-25T07:52:03.231Z,23.41
2022-08-25T07:54:34.148Z,23.70
2022-08-25T07:57:02.749Z,23.56
2022-08-25T07:59:29.698Z,23.64
2022-08-25T08:01:56.290Z,24.26
2022-08-25T08:04:22.664Z,24.11
2022-08-25T08:06:49.211Z,24.19
2022-08-25T08:09:15.758Z,23.94
2022-08-25T08:11:45.575Z,23.94
2022-08-25T08:14:20.352Z,24.31
2022-08-25T08:16:47.166Z,24.50
2022-08-25T08:19:13.501Z,24.84
2022-08-25T08:21:40.975Z,25.11
2022-08-25T08:24:14.859Z,25.20
2022-08-25T08:26:59.048Z,25.18
2022-08-25T08:29:28.150Z,25.11
2022-08-25T08:31:54.610Z,25.01
2022-08-25T08:34:24.947Z,25.42
2022-08-25T08:36:52.010Z,25.35
2022-08-25T08:39:18.493Z,25.54
2022-08-25T08:42:12.517Z,25.37
2022-08-25T08:44:44.984Z,25.41
2022-08-25T08:47:27.739Z,25.42
2022-08-25T08:50:12.883Z,25.60
2022-08-25T08:52:39.622Z,25.97
2022-08-25T08:55:09.449Z,26.16
2022-08-25T08:57:41.335Z,25.85
2022-08-25T09:00:08.002Z,25.77
2022-08-25T09:02:51.596Z,25.85
2022-08-25T09:05:21.039Z,25.82
2022-08-25T09:07:54.786Z,25.93
2022-08-25T09:10:22.720Z,26.28
2022-08-25T09:13:13.167Z,26.18
2022-08-25T09:15:49.098Z,26.55
2022-08-25T09:18:40.727Z,26.50
2022-08-25T09:21:25.569Z,26.72
2022-08-25T09:24:04.307Z,26.26
2022-08-25T09:26:37.814Z,26.41
2022-08-25T09:29:10.894Z,26.47
2022-08-25T09:31:43.300Z,26.27
2022-08-25T09:34:12.641Z,26.38
2022-08-25T09:36:39.412Z,26.42
2022-08-25T09:39:06.750Z,26.84
2022-08-25T09:41:36.302Z,26.88
2022-08-25T09:44:03.677Z,27.06
2022-08-25T09:46:30.561Z,26.83
2022-08-25T09:48:58.062Z,27.22
2022-08-25T09:51:42.167Z,27.36
2022-08-25T09:54:14.147Z,27.37
2022-08-25T09:56:54.090Z,27.06
2022-08-25T09:59:35.260Z,26.99
2022-08-25T10:02:22.614Z,27.21
2022-08-25T10:04:49.259Z,27.19
2022-08-25T10:07:32.343Z,26.94
2022-08-25T10:10:02.419Z,27.55
2022-08-25T10:12:34.888Z,27.57
2022-08-25T10:15:15.693Z,27.33
2022-08-25T10:17:57.058Z,27.66
2022-08-25T10:20:25.910Z,28.09
2022-08-25T10:23:12.005Z,27.77
2022-08-25T10:28:23.497Z,28.07
2022-08-25T10:31:15.059Z,28.73
2022-08-25T10:33:50.397Z,28.61
2022-08-25T10:36:21.878Z,28.30
2022-08-25T10:38:57.370Z,28.25
2022-08-25T10:41:33.406Z,28.41
2022-08-25T10:44:15.822Z,28.25
2022-08-25T10:46:53.269Z,28.55
2022-08-25T10:49:29.374Z,28.34
2022-08-25T10:52:01.801Z,28.38
2022-08-25T10:54:49.634Z,28.37
2022-08-25T10:57:37.384Z,28.75
2022-08-25T11:00:08.878Z,28.45
2022-08-25T11:03:00.295Z,28.88
2022-08-25T11:05:29.035Z,28.80
2022-08-25T11:08:04.057Z,29.14
2022-08-25T11:10:45.845Z,28.88
2022-08-25T11:16:13.694Z,29.21
2022-08-25T11:18:45.454Z,29.02
2022-08-25T11:21:24.859Z,29.51
2022-08-25T11:23:55.367Z,28.92
2022-08-25T11:26:31.969Z,29.17
2022-08-25T11:29:03.217Z,29.01
2022-08-25T11:31:32.575Z,28.82
2022-08-25T11:33:59.433Z,28.69
2022-08-25T11:36:32.546Z,29.21
2022-08-25T11:39:14.333Z,29.49
2022-08-25T11:41:50.685Z,29.51
2022-08-25T11:44:36.065Z,29.50
2022-08-25T11:47:21.457Z,29.13
2022-08-25T11:50:05.558Z,29.54
2022-08-25T11:52:35.119Z,29.93
2022-08-25T11:55:22.831Z,30.12
2022-08-25T11:57:53.394Z,29.89
2022-08-25T12:00:37.687Z,29.54
2022-08-25T12:03:22.725Z,30.02
2022-08-25T12:05:50.971Z,29.34
2022-08-25T12:08:37.223Z,29.41
2022-08-25T12:11:10.593Z,29.64
2022-08-25T12:13:47.999Z,30.17
2022-08-25T12:16:33.328Z,30.09
2022-08-25T12:19:19.533Z,30.49
2022-08-25T12:21:47.233Z,30.65
2022-08-25T12:24:15.776Z,30.62
2022-08-25T12:26:46.149Z,29.63
2022-08-25T12:29:16.792Z,29.16
2022-08-25T12:32:00.569Z,29.78
2022-08-25T12:34:31.358Z,29.96
2022-08-25T12:37:11.558Z,30.43
2022-08-25T12:39:44.894Z,29.91
2022-08-25T12:42:31.616Z,30.01
2022-08-25T12:45:19.562Z,29.90
2022-08-25T12:47:47.914Z,30.07
2022-08-25T12:50:29.825Z,30.01
2022-08-25T12:53:09.195Z,30.13
2022-08-25T12:55:37.564Z,30.44
2022-08-25T12:58:08.243Z,30.64
2022-08-25T13:00:52.895Z,30.05
2022-08-25T13:03:35.562Z,30.04
2022-08-25T13:06:08.618Z,30.40
2022-08-25T13:08:56.136Z,30.17
2022-08-25T13:11:41.633Z,30.59
2022-08-25T13:14:16.291Z,30.27
2022-08-25T13:16:51.953Z,29.73
2022-08-25T13:19:19.483Z,29.83
2022-08-25T13:21:47.558Z,29.43
2022-08-25T13:24:20.034Z,30.03
2022-08-25T13:26:48.819Z,29.91
2022-08-25T13:29:25.038Z,29.83
2022-08-25T13:31:55.810Z,29.39
2022-08-25T13:34:34.795Z,29.20
2022-08-25T13:37:06.275Z,29.13
2022-08-25T13:39:55.005Z,29.12
2022-08-25T13:42:23.969Z,29.53
2022-08-25T13:44:55.377Z,29.97
2022-08-25T13:47:43.816Z,30.20
2022-08-25T13:50:27.728Z,29.59
2022-08-25T13:52:55.661Z,29.83
2022-08-25T13:55:27.845Z,29.91
2022-08-25T13:57:56.805Z,30.14
2022-08-25T14:00:49.756Z,30.11
2022-08-25T14:03:36.623Z,29.89
2022-08-25T14:06:05.973Z,30.03
2022-08-25T14:08:36.908Z,30.05
2022-08-25T14:11:10.372Z,29.77
2022-08-25T14:13:44.090Z,30.02
2022-08-25T14:16:13.938Z,30.18
2022-08-25T14:18:46.341Z,30.09
2022-08-25T14:21:13.116Z,29.65
2022-08-25T14:23:42.334Z,29.86
2022-08-25T14:26:08.711Z,29.33
2022-08-25T14:28:36.736Z,29.07
2022-08-25T14:31:15.281Z,29.15
2022-08-25T14:33:43.158Z,29.63
2022-08-25T14:36:09.680Z,29.91
2022-08-25T14:38:36.328Z,30.01
2022-08-25T14:43:37.297Z,30.09
2022-08-25T14:46:15.528Z,30.22
2022-08-25T14:48:44.145Z,30.32
2022-08-25T14:51:12.549Z,29.99
2022-08-25T14:53:39.541Z,29.93
2022-08-25T14:56:09.206Z,29.42
2022-08-25T14:58:50.868Z,29.39
2022-08-25T15:01:29.640Z,29.62
2022-08-25T15:04:00.334Z,29.52
2022-08-25T15:06:27.003Z,29.54
2022-08-25T15:08:53.337Z,29.60
2022-08-25T15:11:23.317Z,29.51
2022-08-25T15:13:50.020Z,29.46
2022-08-25T15:16:33.785Z,29.35
2022-08-25T15:19:06.803Z,29.23
2022-08-25T15:21:33.291Z,29.28
2022-08-25T15:23:59.683Z,29.35
2022-08-25T15:26:26.656Z,29.29
2022-08-25T15:28:53.404Z,29.16
2022-08-25T15:31:20.508Z,29.26
2022-08-25T15:33:47.256Z,29.10
2022-08-25T15:36:15.521Z,29.14
2022-08-25T15:38:42.906Z,29.24
2022-08-25T15:41:09.681Z,29.14
2022-08-25T15:43:39.121Z,29.13
2022-08-25T15:46:07.052Z,29.13
2022-08-25T15:48:33.986Z,28.96
2022-08-25T15:51:00.361Z,29.12
2022-08-25T15:53:27.891Z,29.10
2022-08-25T15:55:54.607Z,29.28
2022-08-25T15:58:21.106Z,29.17
2022-08-25T16:00:51.889Z,29.05
2022-08-25T16:03:23.038Z,29.11
2022-08-25T16:05:52.828Z,29.13
2022-08-25T16:08:19.856Z,29.06
2022-08-25T16:10:46.473Z,28.89
2022-08-25T16:13:12.892Z,28.86
2022-08-25T16:15:46.140Z,28.83
2022-08-25T16:18:12.695Z,28.83
2022-08-25T16:20:43.145Z,28.89
2022-08-25T16:23:09.540Z,28.81
2022-08-25T16:25:39.439Z,28.91
2022-08-25T16:28:07.970Z,28.87
2022-08-25T16:30:34.561Z,28.71
2022-08-25T16:33:01.158Z,28.79
2022-08-25T16:35:27.509Z,28.73
2022-08-25T16:37:55.758Z,28.72
2022-08-25T16:40:24.027Z,28.51
2022-08-25T16:42:50.384Z,28.57
2022-08-25T16:45:17.035Z,28.52
2022-08-25T16:47:43.511Z,28.52
2022-08-25T16:50:13.061Z,28.53
2022-08-25T16:52:40.660Z,28.46
2022-08-25T16:55:10.552Z,28.53
2022-08-25T16:57:37.414Z,28.50
2022-08-25T17:00:05.866Z,28.54
2022-08-25T17:02:35.525Z,28.48
2022-08-25T17:05:01.889Z,28.44
2022-08-25T17:07:28.511Z,28.36
2022-08-25T17:09:55.006Z,28.38
2022-08-25T17:12:21.519Z,28.25
2022-08-25T17:14:47.944Z,28.26
2022-08-25T17:17:16.315Z,28.26
2022-08-25T17:19:45.843Z,28.22
2022-08-25T17:22:13.096Z,28.26
2022-08-25T17:24:40.585Z,28.14
2022-08-25T17:27:07.522Z,28.14
2022-08-25T17:29:34.004Z,28.13
2022-08-25T17:32:00.815Z,28.06
2022-08-25T17:34:27.258Z,27.97
2022-08-25T17:36:54.481Z,27.94
2022-08-25T17:39:22.234Z,27.92
2022-08-25T17:41:51.348Z,27.84
2022-08-25T17:44:20.466Z,27.74
2022-08-25T17:46:48.861Z,27.66
2022-08-25T17:49:15.926Z,27.53
2022-08-25T17:51:43.575Z,27.42
2022-08-25T17:54:12.122Z,27.29
2022-08-25T17:56:38.981Z,27.16
2022-08-25T17:59:05.438Z,27.06
2022-08-25T18:01:34.793Z,26.92
2022-08-25T18:04:01.399Z,26.77
2022-08-25T18:06:29.310Z,26.62
2022-08-25T18:08:59.739Z,26.49
2022-08-25T18:11:26.375Z,26.36
2022-08-25T18:16:34.377Z,26.14
2022-08-25T18:19:00.634Z,26.00
2022-08-25T18:21:30.729Z,25.90
2022-08-25T18:23:57.222Z,25.80
2022-08-25T18:26:25.443Z,25.67
2022-08-25T18:28:51.927Z,25.54
2022-08-25T18:31:19.821Z,25.41
2022-08-25T18:33:46.567Z,25.28
2022-08-25T18:36:13.567Z,25.18
2022-08-25T18:38:40.621Z,25.08
2022-08-25T18:41:10.231Z,24.98
2022-08-25T18:43:36.575Z,24.84
2022-08-25T18:46:05.052Z,24.74
2022-08-25T18:48:31.942Z,24.55
2022-08-25T18:50:59.873Z,24.34
2022-08-25T18:53:30.721Z,24.27
2022-08-25T18:56:04.405Z,24.08
2022-08-25T18:58:30.737Z,23.95
2022-08-25T19:01:18.555Z,23.93
2022-08-25T19:03:45.697Z,23.82
2022-08-25T19:06:12.959Z,23.61
2022-08-25T19:08:39.452Z,23.49
2022-08-25T19:11:08.800Z,23.43
2022-08-25T19:13:35.189Z,23.43
2022-08-25T19:16:11.953Z,23.32
2022-08-25T19:18:41.094Z,23.17
2022-08-25T19:21:08.414Z,22.97
2022-08-25T19:23:36.109Z,22.93
2022-08-25T19:26:17.805Z,22.87
2022-08-25T19:28:45.779Z,22.80
2022-08-25T19:31:19.876Z,22.70
2022-08-25T19:33:47.237Z,22.66
2022-08-25T19:36:16.432Z,22.51
2022-08-25T19:38:43.194Z,22.35
2022-08-25T19:41:14.415Z,22.19
2022-08-25T19:43:50.579Z,22.12
2022-08-25T19:46:23.743Z,22.00
2022-08-25T19:48:50.444Z,22.03
2022-08-25T19:51:19.301Z,21.92
2022-08-25T19:53:55.291Z,21.85
2022-08-25T19:56:23.104Z,21.88
2022-08-25T19:58:50.293Z,21.90
2022-08-25T20:01:18.363Z,21.88
2022-08-25T20:03:44.907Z,21.84
2022-08-25T20:06:12.052Z,21.85
2022-08-25T20:08:42.470Z,21.81
2022-08-25T20:11:09.493Z,21.77
2022-08-25T20:13:36.159Z,21.77
2022-08-25T20:16:02.744Z,21.75
2022-08-25T20:18:36.973Z,21.67
2022-08-25T20:21:03.646Z,21.64
2022-08-25T20:23:30.993Z,21.63
2022-08-25T20:26:00.530Z,21.62
2022-08-25T20:28:27.296Z,21.56
2022-08-25T20:30:54.217Z,21.49
2022-08-25T20:33:23.588Z,21.38
2022-08-25T20:35:50.112Z,21.19
2022-08-25T20:38:19.575Z,20.99
2022-08-25T20:40:45.998Z,20.82
2022-08-25T20:43:14.858Z,20.70
2022-08-25T20:45:42.586Z,20.63
2022-08-25T20:48:09.835Z,20.59
2022-08-25T20:50:38.137Z,20.58
2022-08-25T20:53:04.436Z,20.41
2022-08-25T20:55:43.719Z,20.40
2022-08-25T20:58:10.340Z,20.37
2022-08-25T21:00:38.108Z,20.34
2022-08-25T21:03:05.652Z,20.34
2022-08-25T21:05:33.900Z,20.33
2022-08-25T21:08:00.255Z,20.29
2022-08-25T21:10:26.952Z,20.23
2022-08-25T21:12:54.302Z,20.21
2022-08-25T21:15:21.364Z,20.28
2022-08-25T21:17:51.188Z,20.23
2022-08-25T21:20:17.940Z,20.06
2022-08-25T21:22:44.405Z,19.92
2022-08-25T21:25:11.905Z,19.86
2022-08-25T21:27:38.271Z,19.70
2022-08-25T21:30:05.618Z,19.67
2022-08-25T21:32:32.961Z,19.71
2022-08-25T21:34:59.376Z,19.79
2022-08-25T21:37:26.751Z,19.81
2022-08-25T21:39:53.641Z,19.86
2022-08-25T21:42:21.158Z,19.85
2022-08-25T21:44:48.289Z,19.84
2022-08-25T21:47:14.848Z,19.81
2022-08-25T21:49:47.574Z,19.84
2022-08-25T21:52:14.349Z,19.86
2022-08-25T21:54:41.801Z,19.92
2022-08-25T21:57:08.197Z,19.94
2022-08-25T21:59:36.671Z,19.92
2022-08-25T22:02:06.911Z,19.86
2022-08-25T22:04:35.271Z,19.78
2022-08-25T22:07:02.526Z,19.72
2022-08-25T22:09:29.652Z,19.34
2022-08-25T22:11:56.661Z,19.29
2022-08-25T22:14:26.097Z,19.27
2022-08-25T22:16:53.064Z,19.29
2022-08-25T22:19:20.878Z,19.26
2022-08-25T22:21:47.457Z,19.34
2022-08-25T22:24:17.216Z,19.35
2022-08-25T22:26:43.555Z,19.27
2022-08-25T22:29:14.056Z,19.23
2022-08-25T22:31:51.090Z,19.15
2022-08-25T22:34:19.378Z,19.26
2022-08-25T22:36:59.816Z,19.23
2022-08-25T22:39:26.749Z,19.12
2022-08-25T22:41:53.403Z,18.96
2022-08-25T22:44:19.715Z,18.92
2022-08-25T22:46:46.341Z,18.87
2022-08-25T22:49:12.680Z,18.80
2022-08-25T22:51:39.256Z,18.72
2022-08-25T22:54:05.720Z,18.76
2022-08-25T22:56:36.764Z,18.80
2022-08-25T22:59:05.581Z,18.74
2022-08-25T23:01:32.519Z,18.64
2022-08-25T23:04:00.026Z,18.52
2022-08-25T23:06:27.194Z,18.56
2022-08-25T23:08:54.069Z,18.63
2022-08-25T23:11:22.272Z,18.51
2022-08-25T23:13:48.651Z,18.48
2022-08-25T23:16:15.358Z,18.45
2022-08-25T23:18:43.856Z,18.42
2022-08-25T23:21:11.334Z,18.49
2022-08-25T23:23:37.683Z,18.54
2022-08-25T23:26:04.427Z,18.48
2022-08-25T23:28:31.018Z,18.38
2022-08-25T23:30:59.542Z,18.31
2022-08-25T23:33:27.543Z,18.28
2022-08-25T23:35:57.806Z,18.31
2022-08-25T23:38:24.553Z,18.32
2022-08-25T23:40:50.904Z,18.38
2022-08-25T23:43:17.287Z,18.40
2022-08-25T23:45:44.368Z,18.40
2022-08-25T23:48:10.744Z,18.34
2022-08-25T23:50:42.217Z,18.05
2022-08-25T23:53:09.399Z,18.03
2022-08-25T23:55:36.235Z,18.02
2022-08-25T23:58:03.013Z,18.01
